Worthington, Missouri
Current Conditions -  °F | °C
As of 5:10 PM on Tuesday 25 Nov 2014 (Local Time) from KTVK Reporting Station
Clear Clear  
Wind Chill: -5°   Ceiling: Unl
Heat Index: -2°   Visibility: 10mi
Dew Point: -9°   Wind: 5mph
Humidity: 59%   Direction: 160°SSE
Pressure: 30.1"   Gusts: NA
Location:  40.41°N, 92.69°W
Report Text: KTVK 252310Z AUTO 16004KT 10SM CLR M02/M09 A3010 RMK AO2
Loading
Personal Weather Stations






























Interactive Weather Map New forecast layout! Learn more

10-Day Weather Forecast

Advertisements
Track Severe Weather on mobile